Caro, MI

2:35 AM EST on November 22, 2017 (GMT -0500)
Caro

Weather History for KCFS - January, 2014

Change the Weather History Date:

Tuesday, January 7, 2014

  Actual Average (KMBS) Record (KMBS)
Temperature  
Mean Temperature -4 °F -  
Max Temperature 4 °F 28 °F 59 °F (2008)
Min Temperature -13 °F 16 °F -11 °F (2014)
Degree Days  
Heating Degree Days 70    
Moisture  
Dew Point -12 °F    
Average Humidity 70    
Maximum Humidity 74    
Minimum Humidity 65    
Precipitation  
Precipitation 0.00 in - - ()
Sea Level Pressure  
Sea Level Pressure 30.07 in    
Wind  
Wind Speed 13 mph (SW)    
Max Wind Speed 24 mph    
Max Gust Speed 36 mph    
Visibility 8 miles    
Events Snow    
Averages and records for this station are not official NWS values.
T = Trace of Precipitation, MM = Missing Value Source: NWS Daily Summary

Daily Weather History Graph

Daily Weather History Graph

Search for Another Location

Airport or City:

Trip Planner

Search our weather history database for the weather conditions in past years. The results will help you decide how hot, cold, wet, or windy it might be!

Date:

Astronomy

Jan. 07, 2014 Rise Set
Actual Time 8:06 AM EST 5:14 PM EST
Civil Twilight 7:34 AM EST 5:46 PM EST
Nautical Twilight 6:58 AM EST 6:22 PM EST
Astronomical Twilight 6:23 AM EST 6:56 PM EST
Moon 11:41 AM EST (1/7) No Moon Set
Length of Visible Light 10h 12m
Length of Day
9h 07m
Waxing Crescent, 45% of the Moon is Illuminated
Jan 7
Waxing Crescent
Jan 7
First Quarter
Jan 15
Full
Jan 24
Last Quarter
Jan 30
New

Hourly Weather History & Observations

Time (EST) Temp. Windchill Dew Point Humidity Pressure Visibility Wind Dir Wind Speed Gust Speed Precip Events Conditions
12:14 AM -9.6 °F -30.0 °F -16.1 °F 73% 29.97 in 10.0 mi SW 12.7 mph 18.4 mph N/A   Clear
12:35 AM -10.1 °F -30.7 °F -17.0 °F 72% 29.97 in 10.0 mi SW 12.7 mph 17.3 mph N/A   Clear
12:54 AM -10.5 °F -30.2 °F -17.1 °F 72% 29.97 in 10.0 mi SW 11.5 mph - N/A   Clear
1:14 AM -11.2 °F -32.9 °F -18.0 °F 72% 29.98 in 10.0 mi SW 13.8 mph 18.4 mph N/A   Clear
1:35 AM -11.6 °F -32.5 °F -18.4 °F 72% 29.98 in 10.0 mi SW 12.7 mph - N/A   Clear
1:54 AM -12.1 °F -32.3 °F -18.8 °F 72% 29.98 in 10.0 mi SW 11.5 mph - N/A   Clear
2:14 AM -12.3 °F -31.5 °F -19.3 °F 71% 29.99 in 10.0 mi SSW 10.4 mph - N/A   Clear
2:34 AM -12.6 °F -32.9 °F -19.3 °F 72% 30.00 in 10.0 mi SW 11.5 mph - N/A   Clear
2:54 AM -13.0 °F -33.4 °F -19.7 °F 72% 30.00 in 10.0 mi SW 11.5 mph - N/A   Clear
3:15 AM -12.5 °F -30.6 °F -19.3 °F 72% 30.01 in 10.0 mi SW 9.2 mph - N/A   Clear
3:34 AM -12.1 °F -32.3 °F -19.1 °F 71% 30.00 in 10.0 mi SW 11.5 mph - N/A   Clear
3:54 AM -12.1 °F -31.3 °F -19.3 °F 70% 29.99 in 10.0 mi SSW 10.4 mph - N/A   Clear
4:15 AM -12.1 °F -30.1 °F -18.8 °F 72% 30.00 in 10.0 mi SW 9.2 mph - N/A   Clear
4:34 AM -12.1 °F -31.3 °F -18.9 °F 72% 30.00 in 10.0 mi SW 10.4 mph - N/A   Mostly Cloudy
4:54 AM -12.1 °F -32.3 °F -18.6 °F 73% 30.01 in 10.0 mi SW 11.5 mph 16.1 mph N/A   Scattered Clouds
5:15 AM -12.1 °F -31.3 °F -18.8 °F 72% 30.01 in 10.0 mi SSW 10.4 mph - N/A   Clear
5:34 AM -12.6 °F -31.9 °F -19.3 °F 72% 30.02 in 10.0 mi SSW 10.4 mph - N/A   Clear
5:54 AM -13.4 °F -31.7 °F -20.0 °F 72% 30.02 in 10.0 mi SSW 9.2 mph - N/A   Clear
6:14 AM -13.2 °F -32.6 °F -19.5 °F 73% 30.02 in 10.0 mi SSW 10.4 mph - N/A   Clear
6:34 AM -12.8 °F -34.1 °F -19.3 °F 73% 30.02 in 10.0 mi SSW 12.7 mph - N/A   Clear
6:55 AM -13.0 °F -32.4 °F -19.3 °F 73% 30.02 in 10.0 mi SSW 10.4 mph - N/A   Clear
7:14 AM -12.6 °F -33.9 °F -19.3 °F 72% 30.03 in 10.0 mi SSW 12.7 mph - N/A   Clear
7:34 AM -12.5 °F -32.7 °F -19.1 °F 72% 30.03 in 10.0 mi SW 11.5 mph - N/A   Clear
7:55 AM -12.3 °F -31.5 °F -18.9 °F 72% 30.04 in 10.0 mi SW 10.4 mph - N/A   Clear
8:14 AM -12.1 °F -34.1 °F -18.8 °F 72% 30.04 in 10.0 mi SSW 13.8 mph - N/A   Clear
8:35 AM -11.7 °F -31.8 °F -18.4 °F 72% 30.05 in 10.0 mi SSW 11.5 mph - N/A   Clear
8:54 AM -11.2 °F -32.1 °F -18.4 °F 70% 30.06 in 10.0 mi SSW 12.7 mph 16.1 mph N/A   Clear
9:14 AM -10.3 °F -31.8 °F -17.5 °F 71% 30.06 in 10.0 mi SSW 13.8 mph 19.6 mph N/A   Clear
9:35 AM -8.7 °F -31.2 °F -16.1 °F 70% 30.07 in 7.0 mi SW 16.1 mph - N/A   Clear
9:54 AM -7.4 °F -28.1 °F -15.0 °F 70% 30.07 in 10.0 mi SW 13.8 mph 19.6 mph N/A   Clear
10:15 AM -5.8 °F -25.2 °F -13.9 °F 68% 30.07 in 7.0 mi SSW 12.7 mph - N/A   Clear
10:34 AM -4.9 °F -25.6 °F -13.0 °F 68% 30.08 in 7.0 mi SW 15.0 mph 20.7 mph N/A   Clear
10:54 AM -3.5 °F -22.3 °F -11.7 °F 68% 30.08 in 7.0 mi SW 12.7 mph 20.7 mph N/A   Clear
11:15 AM -2.2 °F -22.9 °F -10.5 °F 68% 30.08 in 4.0 mi SW 16.1 mph 29.9 mph N/A   Haze
11:34 AM -1.3 °F -21.0 °F -9.9 °F 67% 30.07 in 5.0 mi SSW 15.0 mph - N/A   Haze
11:54 AM -0.6 °F -20.8 °F -9.4 °F 66% 30.05 in 5.0 mi SW 16.1 mph 25.3 mph N/A   Haze
12:15 PM 0.1 °F -21.6 °F -8.5 °F 67% 30.05 in 5.0 mi SSW 19.6 mph 24.2 mph N/A   Haze
12:34 PM 0.5 °F -20.6 °F -8.3 °F 66% 30.04 in 5.0 mi SW 18.4 mph 24.2 mph N/A   Haze
12:54 PM 0.7 °F -21.4 °F -7.8 °F 68% 30.04 in 4.0 mi SW 20.7 mph 26.5 mph N/A   Haze
1:15 PM 1.8 °F -18.9 °F -7.2 °F 66% 30.04 in 2.0 mi SW 18.4 mph 26.5 mph N/A   Haze
1:34 PM 1.6 °F -21.2 °F -7.6 °F 65% 30.04 in 4.0 mi SW 23.0 mph 29.9 mph N/A   Haze
1:54 PM 1.9 °F -21.2 °F -6.3 °F 68% 30.04 in 1.8 mi SW 24.2 mph 31.1 mph N/A   Haze
2:15 PM 2.8 °F -20.0 °F -6.0 °F 67% 30.03 in 3.0 mi SW 24.2 mph 32.2 mph N/A   Haze
2:34 PM 3.2 °F -16.5 °F -5.8 °F 66% 30.03 in 2.0 mi SW 17.3 mph 35.7 mph N/A   Haze
2:55 PM 3.7 °F -18.3 °F -5.3 °F 66% 30.03 in 2.0 mi SW 23.0 mph 31.1 mph N/A   Haze
3:14 PM 4.1 °F -16.4 °F -5.1 °F 66% 30.04 in 3.0 mi SW 19.6 mph 25.3 mph N/A   Haze
3:34 PM 4.1 °F -17.9 °F -4.9 °F 66% 30.05 in 3.0 mi SW 23.0 mph 27.6 mph N/A   Haze
3:55 PM 4.8 °F -13.8 °F -4.4 °F 66% 30.07 in 4.0 mi SW 16.1 mph 28.8 mph N/A   Haze
4:14 PM 4.6 °F -15.7 °F -4.5 °F 66% 30.07 in 7.0 mi SW 19.6 mph 24.2 mph N/A   Clear
4:34 PM 4.1 °F -14.7 °F -4.7 °F 67% 30.07 in 3.0 mi SW 16.1 mph 27.6 mph N/A   Haze
4:55 PM 3.7 °F -15.8 °F -4.9 °F 67% 30.08 in 5.0 mi SW 17.3 mph 26.5 mph N/A   Haze
5:14 PM 3.6 °F -14.8 °F -4.2 °F 70% 30.09 in 5.0 mi SW 15.0 mph 25.3 mph N/A   Haze
5:34 PM 3.6 °F -14.8 °F -4.0 °F 71% 30.10 in 10.0 mi SW 15.0 mph 23.0 mph N/A   Overcast
5:55 PM 3.2 °F -14.6 °F -4.0 °F 72% 30.10 in 10.0 mi SW 13.8 mph - N/A   Overcast
6:10 PM 3.2 °F -15.9 °F -4.0 °F 72% 30.11 in 10.0 mi SW 16.1 mph - N/A   Overcast
7:17 PM 2.1 °F -16.6 °F -5.3 °F 71% 30.15 in 10.0 mi SW 15.0 mph - N/A   Overcast
7:34 PM 1.9 °F -17.5 °F -5.8 °F 70% 30.15 in 10.0 mi SSW 16.1 mph 21.9 mph N/A   Overcast
7:54 PM 1.9 °F -16.9 °F -5.8 °F 70% 30.16 in 10.0 mi SW 15.0 mph - N/A   Overcast
8:15 PM 1.9 °F -17.5 °F -5.8 °F 70% 30.17 in 10.0 mi SW 16.1 mph 21.9 mph N/A   Overcast
8:34 PM 2.1 °F -16.0 °F -5.8 °F 69% 30.17 in 10.0 mi SSW 13.8 mph 19.6 mph N/A   Overcast
8:54 PM 2.1 °F -15.2 °F -5.8 °F 69% 30.18 in 10.0 mi SSW 12.7 mph - N/A   Overcast
9:14 PM 2.1 °F -16.6 °F -5.3 °F 71% 30.19 in 7.0 mi SSW 15.0 mph 21.9 mph N/A   Overcast
9:34 PM 1.9 °F -16.2 °F -5.4 °F 71% 30.20 in 7.0 mi SSW 13.8 mph - N/A   Overcast
9:55 PM 1.9 °F -14.7 °F -5.1 °F 72% 30.20 in 7.0 mi SSW 11.5 mph 18.4 mph N/A   Overcast
10:14 PM 2.1 °F -14.4 °F -4.9 °F 72% 30.21 in 7.0 mi SW 11.5 mph - N/A   Overcast
10:34 PM 1.9 °F -15.5 °F -4.9 °F 73% 30.22 in 7.0 mi SSW 12.7 mph - N/A   Overcast
10:55 PM 1.8 °F -15.7 °F -4.9 °F 74% 30.22 in 7.0 mi SW 12.7 mph - N/A Snow Light Snow
11:14 PM 1.9 °F -14.7 °F -4.9 °F 73% 30.22 in 10.0 mi SW 11.5 mph - N/A   Overcast
11:34 PM 1.9 °F -14.7 °F -4.9 °F 73% 30.22 in 10.0 mi SSW 11.5 mph - N/A   Overcast
11:55 PM 1.9 °F -13.8 °F -4.9 °F 73% 30.22 in 10.0 mi SSW 10.4 mph - N/A   Overcast